Time;durP1;ratioP1;P1;durP2;ratioP2;P2;SDS_P1;SDS_P2;PMS_P1;PMS_P2;Temp;Humidity;BMP_temperature;BMP_pressure;BME280_temperature;BME280_humidity;BME280_pressure;Samples;Min_cycle;Max_cycle;Signal;HPM_P1;HPM_P2
2023/05/07 00:01:34;;;;;;;4.57;3.77;;;14.60;99.90;;;;;;5046901;28;20484;-73
2023/05/07 00:04:00;;;;;;;5.33;4.27;;;14.60;99.90;;;;;;5050055;28;20534;-74
2023/05/07 00:06:28;;;;;;;5.23;4.73;;;14.70;99.90;;;;;;5045183;28;20452;-74
2023/05/07 00:08:57;;;;;;;12.23;4.63;;;14.70;99.90;;;;;;5050325;28;20435;-74
2023/05/07 00:11:24;;;;;;;6.70;4.10;;;14.70;99.90;;;;;;5048576;28;21151;-74
2023/05/07 00:13:51;;;;;;;4.43;3.90;;;14.60;99.90;;;;;;5044070;28;20472;-74
2023/05/07 00:16:17;;;;;;;4.87;4.47;;;14.60;99.90;;;;;;5045503;28;21030;-73
2023/05/07 00:18:44;;;;;;;7.60;4.77;;;14.60;99.90;;;;;;5049155;28;20476;-74
2023/05/07 00:21:11;;;;;;;5.40;4.63;;;14.60;99.90;;;;;;5046695;28;20473;-74
2023/05/07 00:23:38;;;;;;;5.80;4.90;;;14.60;99.90;;;;;;5050437;28;20941;-74
2023/05/07 00:26:06;;;;;;;5.70;4.70;;;14.60;99.90;;;;;;5050508;28;20467;-74
2023/05/07 00:28:33;;;;;;;5.33;4.87;;;14.60;99.90;;;;;;5050402;28;20523;-73
2023/05/07 00:30:59;;;;;;;5.33;4.77;;;14.50;99.90;;;;;;5047014;28;20474;-73
2023/05/07 00:33:26;;;;;;;6.47;5.00;;;14.50;99.90;;;;;;5045886;28;20432;-73
2023/05/07 00:35:54;;;;;;;5.73;5.23;;;14.60;99.90;;;;;;5049965;28;20432;-73
2023/05/07 00:38:20;;;;;;;6.07;5.40;;;14.50;99.90;;;;;;5050216;28;20459;-73
2023/05/07 00:40:47;;;;;;;6.00;5.40;;;14.50;99.90;;;;;;5049910;28;20477;-73
2023/05/07 00:43:15;;;;;;;7.47;5.80;;;14.50;99.90;;;;;;5049757;28;20537;-73
2023/05/07 00:45:41;;;;;;;7.40;5.50;;;14.40;99.90;;;;;;5050126;28;20460;-73
2023/05/07 00:48:08;;;;;;;6.27;5.30;;;14.40;99.90;;;;;;5049670;28;20617;-73
2023/05/07 00:50:35;;;;;;;9.70;6.20;;;14.50;99.90;;;;;;5040650;28;20536;-73
2023/05/07 00:53:01;;;;;;;6.90;5.77;;;14.40;99.90;;;;;;5047147;28;20494;-73
2023/05/07 00:55:29;;;;;;;6.70;5.80;;;14.40;99.90;;;;;;5050213;28;20453;-73
2023/05/07 00:57:55;;;;;;;7.93;6.80;;;14.40;99.90;;;;;;5048624;28;20876;-73
2023/05/07 01:00:24;;;;;;;8.43;7.10;;;14.40;99.90;;;;;;5046114;28;20461;-73
2023/05/07 01:02:51;;;;;;;8.87;6.87;;;14.40;99.90;;;;;;5050088;28;20492;-73
2023/05/07 01:05:19;;;;;;;6.90;6.20;;;14.40;99.90;;;;;;5048725;28;20501;-73
2023/05/07 01:07:47;;;;;;;14.40;5.70;;;14.40;99.90;;;;;;5049147;28;20468;-73
2023/05/07 01:10:14;;;;;;;10.83;6.40;;;14.40;99.90;;;;;;5050305;28;20472;-73
2023/05/07 01:12:42;;;;;;;7.90;6.53;;;14.30;99.90;;;;;;5050160;28;20446;-73
2023/05/07 01:15:10;;;;;;;8.43;6.67;;;14.30;99.90;;;;;;5046079;28;20454;-73
2023/05/07 01:17:40;;;;;;;7.43;6.17;;;14.30;99.90;;;;;;5038447;28;20452;-73
2023/05/07 01:20:08;;;;;;;12.60;6.77;;;14.30;99.90;;;;;;5042194;28;20469;-73
2023/05/07 01:22:37;;;;;;;7.67;5.90;;;14.30;99.90;;;;;;5041451;28;20488;-73
2023/05/07 01:25:04;;;;;;;10.23;7.07;;;14.30;99.90;;;;;;5038154;28;20983;-73
2023/05/07 01:27:33;;;;;;;8.93;6.90;;;14.30;99.90;;;;;;5032928;28;20453;-73
2023/05/07 01:29:59;;;;;;;9.80;6.90;;;14.30;99.90;;;;;;5038299;28;20477;-73
2023/05/07 01:32:33;;;;;;;10.13;7.10;;;14.20;99.90;;;;;;5032605;28;20989;-73
2023/05/07 01:35:02;;;;;;;7.00;6.30;;;14.20;99.90;;;;;;5030249;28;20477;-73
2023/05/07 01:37:29;;;;;;;8.03;6.93;;;14.20;99.90;;;;;;5030069;28;20450;-73
2023/05/07 01:39:58;;;;;;;9.43;7.40;;;14.20;99.90;;;;;;5029872;28;20504;-73
2023/05/07 01:42:25;;;;;;;7.90;7.10;;;14.10;99.90;;;;;;5048142;28;20481;-73
2023/05/07 01:44:52;;;;;;;9.03;7.50;;;14.10;99.90;;;;;;5040545;28;20960;-73
2023/05/07 01:47:19;;;;;;;10.33;7.20;;;14.10;99.90;;;;;;5036315;28;20457;-73
2023/05/07 01:49:45;;;;;;;8.10;7.30;;;14.10;99.90;;;;;;5033939;28;20476;-73
2023/05/07 01:52:12;;;;;;;13.70;6.97;;;14.10;99.90;;;;;;5029973;28;20454;-73
2023/05/07 01:54:39;;;;;;;7.07;6.37;;;14.10;99.90;;;;;;5029537;28;20531;-73
2023/05/07 01:57:07;;;;;;;9.47;6.63;;;14.10;99.90;;;;;;5040339;28;20498;-73
2023/05/07 01:59:33;;;;;;;15.70;7.60;;;14.00;99.90;;;;;;5037633;28;20590;-73
2023/05/07 02:02:00;;;;;;;7.03;6.37;;;14.00;99.90;;;;;;5030296;28;21040;-73
2023/05/07 02:04:27;;;;;;;10.47;6.50;;;14.10;99.90;;;;;;5043980;28;21302;-73
2023/05/07 02:06:53;;;;;;;9.20;7.13;;;14.00;99.90;;;;;;5033874;28;20457;-73
2023/05/07 02:09:20;;;;;;;7.93;6.83;;;14.00;99.90;;;;;;5035235;28;20453;-73
2023/05/07 02:11:46;;;;;;;7.30;6.60;;;14.00;99.90;;;;;;5036610;28;20498;-73
2023/05/07 02:14:15;;;;;;;8.80;6.70;;;13.90;99.90;;;;;;5037854;28;20453;-73
2023/05/07 02:16:41;;;;;;;8.53;7.00;;;13.90;99.90;;;;;;5042495;28;20464;-73
2023/05/07 02:19:08;;;;;;;12.83;6.80;;;13.90;99.90;;;;;;5036865;28;20862;-73
2023/05/07 02:21:35;;;;;;;12.00;6.30;;;13.90;99.90;;;;;;5033243;28;20522;-73
2023/05/07 02:24:01;;;;;;;10.60;6.90;;;14.00;99.90;;;;;;5033035;28;20454;-72
2023/05/07 02:26:28;;;;;;;9.00;6.10;;;13.90;99.90;;;;;;5037135;28;20515;-73
2023/05/07 02:28:54;;;;;;;9.00;7.30;;;13.90;99.90;;;;;;5033212;28;20508;-72
2023/05/07 02:31:22;;;;;;;8.10;6.40;;;13.90;99.90;;;;;;5033204;28;20812;-72
2023/05/07 02:33:49;;;;;;;7.70;6.90;;;13.90;99.90;;;;;;5033861;28;20450;-72
2023/05/07 02:36:16;;;;;;;8.73;7.20;;;13.90;99.90;;;;;;5041405;28;20516;-73
2023/05/07 02:38:43;;;;;;;7.90;6.80;;;13.90;99.90;;;;;;5033113;28;20995;-72
2023/05/07 02:41:10;;;;;;;10.57;7.27;;;13.90;99.90;;;;;;5040574;28;20473;-73
2023/05/07 02:43:36;;;;;;;8.50;6.90;;;13.80;99.90;;;;;;5033238;28;20486;-72
2023/05/07 02:46:04;;;;;;;10.47;7.53;;;13.80;99.90;;;;;;5032965;28;20445;-73
2023/05/07 02:48:32;;;;;;;14.67;7.40;;;13.80;99.90;;;;;;5042599;28;20507;-72
2023/05/07 02:50:59;;;;;;;8.50;6.97;;;13.80;99.90;;;;;;5035759;28;20472;-72
2023/05/07 02:53:26;;;;;;;14.00;7.20;;;13.80;99.90;;;;;;5041242;28;20493;-73
2023/05/07 02:55:53;;;;;;;8.90;7.00;;;13.80;99.90;;;;;;5035492;28;20498;-73
2023/05/07 02:58:20;;;;;;;8.27;6.53;;;13.80;99.90;;;;;;5032866;28;20458;-72
2023/05/07 03:00:46;;;;;;;7.50;6.63;;;13.70;99.90;;;;;;5037392;28;20478;-72
2023/05/07 03:03:13;;;;;;;12.40;7.53;;;13.70;99.90;;;;;;5037220;28;20530;-73
2023/05/07 03:05:41;;;;;;;10.90;7.20;;;13.80;99.90;;;;;;5040964;28;21012;-72
2023/05/07 03:08:10;;;;;;;13.23;7.20;;;13.70;99.90;;;;;;5045559;28;20519;-73
2023/05/07 03:10:37;;;;;;;8.53;6.33;;;13.70;99.90;;;;;;5034384;28;20536;-73
2023/05/07 03:13:04;;;;;;;8.13;7.27;;;13.70;99.90;;;;;;5035266;28;20454;-73
2023/05/07 03:15:31;;;;;;;9.70;7.13;;;13.70;99.90;;;;;;5042272;28;20466;-72
2023/05/07 03:17:58;;;;;;;8.83;6.67;;;13.70;99.90;;;;;;5031831;28;20516;-73
2023/05/07 03:20:24;;;;;;;7.47;6.77;;;13.70;99.90;;;;;;5032281;28;20528;-73
2023/05/07 03:22:52;;;;;;;6.40;5.63;;;13.70;99.90;;;;;;5031829;28;20490;-73
2023/05/07 03:25:19;;;;;;;7.87;6.37;;;13.70;99.90;;;;;;5040053;28;20454;-73
2023/05/07 03:27:46;;;;;;;7.90;6.53;;;13.70;99.90;;;;;;5032240;28;20933;-72
2023/05/07 03:30:13;;;;;;;7.27;6.23;;;13.60;99.90;;;;;;5032314;28;20474;-73
2023/05/07 03:32:40;;;;;;;10.57;6.77;;;13.60;99.90;;;;;;5032432;28;20457;-72
2023/05/07 03:35:07;;;;;;;12.33;6.70;;;13.60;99.90;;;;;;5039794;28;20455;-73
2023/05/07 03:37:33;;;;;;;9.57;6.47;;;13.60;99.90;;;;;;5032154;28;20451;-73
2023/05/07 03:40:02;;;;;;;9.43;6.60;;;13.70;99.90;;;;;;5033435;28;20477;-73
2023/05/07 03:42:29;;;;;;;8.00;7.20;;;13.70;99.90;;;;;;5034820;28;20489;-72
2023/05/07 03:44:56;;;;;;;9.90;7.10;;;13.60;99.90;;;;;;5040369;28;20458;-73
2023/05/07 03:47:23;;;;;;;12.20;7.13;;;13.70;99.90;;;;;;5043421;28;20457;-73
2023/05/07 03:49:50;;;;;;;10.73;6.63;;;13.60;99.90;;;;;;5034747;28;20535;-73
2023/05/07 03:52:22;;;;;;;8.57;6.90;;;13.60;99.90;;;;;;5034364;28;20544;-73
2023/05/07 03:54:49;;;;;;;7.67;6.87;;;13.60;99.90;;;;;;5031761;28;21242;-73
2023/05/07 03:57:16;;;;;;;8.77;7.13;;;13.60;99.90;;;;;;5036837;28;21055;-73
2023/05/07 03:59:43;;;;;;;10.03;7.13;;;13.60;99.90;;;;;;5037130;28;20457;-73
2023/05/07 04:02:10;;;;;;;9.77;6.90;;;13.60;99.90;;;;;;5041313;28;21019;-73
2023/05/07 04:04:36;;;;;;;12.10;7.20;;;13.60;99.90;;;;;;5043121;28;20453;-73
2023/05/07 04:07:04;;;;;;;9.07;7.00;;;13.60;99.90;;;;;;5040102;28;20509;-73
2023/05/07 04:09:30;;;;;;;9.37;7.47;;;13.60;99.90;;;;;;5039847;28;20458;-72
2023/05/07 04:11:57;;;;;;;9.17;7.20;;;13.60;99.90;;;;;;5031345;28;20450;-73
2023/05/07 04:14:25;;;;;;;12.77;7.50;;;13.60;99.90;;;;;;5031606;28;20450;-72
2023/05/07 04:16:52;;;;;;;9.50;7.07;;;13.60;99.90;;;;;;5031001;28;20865;-72
2023/05/07 04:19:18;;;;;;;8.13;7.00;;;13.60;99.90;;;;;;5034352;28;20507;-72
2023/05/07 04:21:45;;;;;;;11.97;7.80;;;13.60;99.90;;;;;;5039671;28;20880;-73
2023/05/07 04:24:11;;;;;;;10.40;8.00;;;13.60;99.90;;;;;;5036246;28;20488;-73
2023/05/07 04:26:38;;;;;;;7.30;6.37;;;13.60;99.90;;;;;;5031078;28;20892;-73
2023/05/07 04:29:05;;;;;;;10.40;7.50;;;13.60;99.90;;;;;;5031603;28;20453;-73
2023/05/07 04:31:33;;;;;;;9.87;7.57;;;13.60;99.90;;;;;;5036851;28;20476;-73
2023/05/07 04:33:59;;;;;;;8.60;7.20;;;13.60;99.90;;;;;;5032154;28;20512;-73
2023/05/07 04:36:27;;;;;;;9.43;7.70;;;13.60;99.90;;;;;;5034180;28;20510;-72
2023/05/07 04:38:53;;;;;;;9.67;7.90;;;13.60;99.90;;;;;;5041695;28;20489;-73
2023/05/07 04:41:20;;;;;;;12.73;7.60;;;13.70;99.90;;;;;;5031337;28;20503;-72
2023/05/07 04:43:47;;;;;;;8.27;7.30;;;13.70;99.90;;;;;;5030683;28;21169;-73
2023/05/07 04:46:13;;;;;;;10.03;8.00;;;13.70;99.90;;;;;;5030956;28;20937;-73
2023/05/07 04:48:41;;;;;;;11.50;8.03;;;13.70;99.90;;;;;;5031506;28;20477;-72
2023/05/07 04:51:08;;;;;;;14.80;7.60;;;13.70;99.90;;;;;;5034189;28;20536;-73
2023/05/07 04:53:35;;;;;;;9.23;7.87;;;13.70;99.90;;;;;;5034454;28;20454;-72
2023/05/07 04:56:01;;;;;;;8.77;7.80;;;13.70;99.90;;;;;;5038930;28;20456;-72
2023/05/07 04:58:31;;;;;;;12.70;7.63;;;13.70;99.90;;;;;;5033215;28;20453;-73
2023/05/07 05:00:57;;;;;;;10.80;7.77;;;13.70;99.90;;;;;;5039183;28;20469;-73
2023/05/07 05:03:24;;;;;;;7.80;7.03;;;13.70;99.90;;;;;;5035631;28;20486;-73
2023/05/07 05:05:53;;;;;;;9.70;8.70;;;13.70;99.90;;;;;;5036417;28;20501;-72
2023/05/07 05:08:20;;;;;;;13.10;9.60;;;13.70;99.90;;;;;;5030807;28;20454;-73
2023/05/07 05:10:48;;;;;;;9.67;7.83;;;13.70;99.90;;;;;;5033649;28;20984;-73
2023/05/07 05:13:15;;;;;;;9.10;7.60;;;13.70;99.90;;;;;;5031231;28;20451;-72
2023/05/07 05:15:41;;;;;;;11.77;8.20;;;13.70;99.90;;;;;;5038193;28;20453;-69
2023/05/07 05:18:08;;;;;;;8.97;7.83;;;13.70;99.90;;;;;;5039037;28;20449;-69
2023/05/07 05:20:35;;;;;;;9.13;7.73;;;13.70;99.90;;;;;;5030601;28;20496;-70
2023/05/07 05:23:03;;;;;;;10.10;8.27;;;13.80;99.90;;;;;;5042457;28;20983;-69
2023/05/07 05:25:29;;;;;;;9.70;8.07;;;13.80;99.90;;;;;;5030795;28;20449;-69
2023/05/07 05:27:56;;;;;;;11.97;8.17;;;13.90;99.90;;;;;;5029895;28;20453;-69
2023/05/07 05:30:23;;;;;;;15.73;7.77;;;13.90;99.90;;;;;;5029950;28;20517;-70
2023/05/07 05:32:49;;;;;;;11.33;8.47;;;13.90;99.90;;;;;;5037736;28;20453;-70
2023/05/07 05:35:16;;;;;;;11.00;9.00;;;14.00;99.90;;;;;;5038409;28;20446;-69
2023/05/07 05:37:43;;;;;;;9.13;8.20;;;14.00;99.90;;;;;;5038196;28;20445;-69
2023/05/07 05:40:12;;;;;;;10.10;8.17;;;14.00;99.90;;;;;;5030294;28;20473;-70
2023/05/07 05:42:38;;;;;;;8.40;7.50;;;14.10;99.90;;;;;;5041419;28;20858;-70
2023/05/07 05:45:06;;;;;;;13.33;8.50;;;14.10;99.90;;;;;;5033791;28;21015;-70
2023/05/07 05:47:33;;;;;;;10.43;8.73;;;14.10;99.90;;;;;;5041217;28;21003;-69
2023/05/07 05:49:59;;;;;;;9.63;8.03;;;14.10;99.90;;;;;;5041946;28;20473;-69
2023/05/07 05:52:26;;;;;;;11.30;8.60;;;14.20;99.90;;;;;;5041928;28;20442;-70
2023/05/07 05:54:53;;;;;;;13.77;8.97;;;14.20;99.90;;;;;;5033942;28;20812;-70
2023/05/07 05:57:20;;;;;;;12.50;9.13;;;14.30;99.90;;;;;;5036763;28;20453;-69
2023/05/07 05:59:48;;;;;;;10.23;8.87;;;14.30;99.90;;;;;;5039215;28;20522;-70
2023/05/07 06:02:14;;;;;;;11.83;8.73;;;14.30;99.90;;;;;;5033689;28;20445;-69
2023/05/07 06:04:42;;;;;;;9.50;8.20;;;14.40;99.90;;;;;;5045341;28;20537;-70
2023/05/07 06:07:09;;;;;;;15.87;9.30;;;14.50;99.90;;;;;;5034346;28;20453;-70
2023/05/07 06:09:35;;;;;;;9.90;8.90;;;14.60;99.90;;;;;;5036711;28;21144;-70
2023/05/07 06:12:02;;;;;;;12.47;9.30;;;14.60;99.90;;;;;;5033409;28;20460;-69
2023/05/07 06:14:30;;;;;;;18.40;8.90;;;14.70;99.90;;;;;;5033696;28;20445;-69
2023/05/07 06:16:57;;;;;;;12.20;8.50;;;14.80;99.90;;;;;;5040050;28;20444;-69
2023/05/07 06:19:24;;;;;;;11.67;9.20;;;14.80;99.90;;;;;;5040940;28;20457;-69
2023/05/07 06:21:50;;;;;;;11.57;9.90;;;14.90;99.90;;;;;;5033202;28;20549;-69
2023/05/07 06:24:17;;;;;;;10.40;9.30;;;15.00;99.90;;;;;;5041338;28;20485;-69
2023/05/07 06:26:44;;;;;;;10.50;9.40;;;15.10;99.90;;;;;;5033033;28;20826;-70
2023/05/07 06:29:10;;;;;;;11.87;9.73;;;15.10;99.90;;;;;;5032896;28;20512;-68
2023/05/07 06:31:38;;;;;;;12.33;9.80;;;15.30;99.90;;;;;;5038106;28;20518;-72
2023/05/07 06:34:05;;;;;;;11.17;9.80;;;15.50;99.90;;;;;;5034680;28;20489;-72
2023/05/07 06:36:32;;;;;;;12.10;10.03;;;15.60;99.90;;;;;;5032732;28;20450;-71
2023/05/07 06:38:58;;;;;;;11.97;10.23;;;15.70;99.90;;;;;;5032499;28;20445;-72
2023/05/07 06:41:25;;;;;;;10.47;9.43;;;15.70;99.90;;;;;;5035269;28;20530;-72
2023/05/07 06:43:52;;;;;;;11.63;10.43;;;15.80;99.90;;;;;;5043303;28;20488;-72
2023/05/07 06:46:19;;;;;;;11.37;10.17;;;15.80;99.90;;;;;;5032490;28;20420;-72
2023/05/07 06:48:46;;;;;;;11.33;10.13;;;15.80;99.90;;;;;;5043707;28;20432;-72
2023/05/07 06:51:13;;;;;;;10.93;9.73;;;15.90;99.90;;;;;;5040476;28;20968;-71
2023/05/07 06:53:40;;;;;;;12.90;9.30;;;16.10;99.90;;;;;;5032206;28;20512;-71
2023/05/07 06:56:07;;;;;;;11.60;9.80;;;16.10;99.90;;;;;;5032403;28;20467;-72
2023/05/07 06:58:34;;;;;;;16.13;10.50;;;16.20;99.90;;;;;;5042761;28;20763;-71
2023/05/07 07:01:00;;;;;;;14.43;10.20;;;16.40;99.90;;;;;;5048194;28;20459;-72
2023/05/07 07:03:27;;;;;;;12.60;10.70;;;16.70;99.90;;;;;;5046270;28;20513;-71
2023/05/07 07:05:55;;;;;;;13.87;11.43;;;17.10;99.90;;;;;;5047646;28;20457;-71
2023/05/07 07:08:23;;;;;;;13.57;11.80;;;17.50;99.90;;;;;;5048093;28;21223;-71
2023/05/07 07:10:49;;;;;;;13.63;11.90;;;17.90;99.90;;;;;;5048123;28;20476;-71
2023/05/07 07:13:16;;;;;;;11.63;10.43;;;18.30;99.90;;;;;;5048465;28;20429;-71
2023/05/07 07:15:43;;;;;;;12.97;11.03;;;18.60;99.90;;;;;;5048124;28;20464;-70
2023/05/07 07:18:10;;;;;;;11.37;10.20;;;18.50;99.90;;;;;;5047246;28;20482;-72
2023/05/07 07:20:37;;;;;;;15.33;11.10;;;18.60;99.90;;;;;;5047563;28;21208;-69
2023/05/07 07:23:05;;;;;;;12.70;11.37;;;18.50;99.90;;;;;;5047416;28;20493;-70
2023/05/07 07:25:32;;;;;;;12.17;10.63;;;18.40;99.90;;;;;;5048078;28;20532;-71
2023/05/07 07:27:58;;;;;;;12.90;10.20;;;18.50;99.90;;;;;;5048010;28;20448;-70
2023/05/07 07:30:26;;;;;;;11.00;9.83;;;18.50;99.90;;;;;;5047446;28;20506;-72
2023/05/07 07:32:53;;;;;;;13.70;9.83;;;18.60;99.90;;;;;;5048119;28;20465;-71
2023/05/07 07:35:20;;;;;;;11.43;8.47;;;18.70;99.90;;;;;;5047393;28;20445;-70
2023/05/07 07:37:49;;;;;;;11.17;9.60;;;18.60;99.90;;;;;;5047854;28;20456;-71
2023/05/07 07:40:17;;;;;;;14.60;9.93;;;18.60;99.90;;;;;;5046679;28;20987;-71
2023/05/07 07:42:44;;;;;;;11.97;10.17;;;18.60;99.90;;;;;;5047265;28;20452;-72
2023/05/07 07:45:11;;;;;;;15.00;9.93;;;18.70;99.90;;;;;;5047326;28;20484;-70
2023/05/07 07:47:38;;;;;;;13.37;10.40;;;18.70;99.90;;;;;;5047157;28;20423;-71
2023/05/07 07:50:05;;;;;;;11.73;10.23;;;18.70;99.90;;;;;;5046663;28;20438;-71
2023/05/07 07:52:32;;;;;;;11.23;9.50;;;18.70;99.90;;;;;;5046611;28;20794;-71
2023/05/07 07:54:59;;;;;;;11.10;9.83;;;18.70;99.90;;;;;;5046865;28;20507;-72
2023/05/07 07:57:27;;;;;;;12.60;10.37;;;18.70;99.90;;;;;;5047060;28;20472;-71
2023/05/07 07:59:53;;;;;;;10.23;8.87;;;18.70;99.90;;;;;;5047028;28;20447;-71
2023/05/07 08:02:20;;;;;;;13.00;9.30;;;18.70;99.90;;;;;;5045296;28;20927;-71
2023/05/07 08:04:47;;;;;;;14.53;10.80;;;18.70;99.90;;;;;;5044864;28;20503;-71
2023/05/07 08:07:13;;;;;;;17.23;10.20;;;18.60;99.90;;;;;;5046786;28;20473;-71
2023/05/07 08:09:41;;;;;;;14.53;10.67;;;18.60;99.90;;;;;;5047316;28;20439;-71
2023/05/07 08:12:08;;;;;;;14.70;11.13;;;18.60;99.90;;;;;;5046726;28;20424;-71
2023/05/07 08:14:36;;;;;;;9.17;8.27;;;18.70;99.90;;;;;;5046932;28;20496;-71
2023/05/07 08:17:03;;;;;;;8.33;7.53;;;18.60;99.90;;;;;;5046245;28;20435;-71
2023/05/07 08:19:30;;;;;;;8.57;7.63;;;18.50;99.90;;;;;;5046524;28;20915;-71
2023/05/07 08:21:56;;;;;;;9.60;8.63;;;18.30;99.90;;;;;;5046848;28;20428;-71
2023/05/07 08:24:23;;;;;;;11.67;9.70;;;18.30;99.90;;;;;;5046378;28;20470;-71
2023/05/07 08:26:50;;;;;;;8.80;7.53;;;18.40;99.90;;;;;;5046150;28;20446;-71
2023/05/07 08:29:17;;;;;;;12.23;7.83;;;18.50;99.90;;;;;;5042518;28;20471;-71
2023/05/07 08:31:45;;;;;;;8.90;7.80;;;18.60;99.90;;;;;;5043513;28;20508;-71
2023/05/07 08:34:11;;;;;;;9.57;7.93;;;18.50;99.90;;;;;;5044546;28;20519;-71
2023/05/07 08:36:38;;;;;;;12.20;7.30;;;18.50;99.90;;;;;;5046062;28;20526;-70
2023/05/07 08:39:05;;;;;;;9.53;8.50;;;18.70;99.90;;;;;;5046450;28;20526;-70
2023/05/07 08:41:32;;;;;;;9.97;8.83;;;18.80;99.90;;;;;;5046593;28;21044;-71
2023/05/07 08:44:00;;;;;;;10.13;7.97;;;18.80;99.90;;;;;;5045799;28;20463;-69
2023/05/07 08:46:31;;;;;;;10.43;8.30;;;18.90;99.90;;;;;;5045358;28;20415;-70
2023/05/07 08:48:59;;;;;;;13.10;8.97;;;19.00;99.90;;;;;;5046440;28;20464;-70
2023/05/07 08:51:26;;;;;;;9.20;8.30;;;19.10;99.90;;;;;;5046025;28;20493;-70
2023/05/07 08:53:53;;;;;;;10.53;8.17;;;19.20;99.90;;;;;;5046419;28;20427;-71
2023/05/07 08:56:20;;;;;;;11.03;8.63;;;19.40;99.90;;;;;;5045876;28;20435;-71
2023/05/07 08:58:49;;;;;;;10.00;8.23;;;19.50;99.90;;;;;;5046048;28;20433;-69
2023/05/07 09:01:17;;;;;;;9.60;8.00;;;19.60;99.90;;;;;;5046018;28;20442;-71
2023/05/07 09:03:46;;;;;;;10.77;8.37;;;19.50;99.90;;;;;;5045293;28;20952;-67
2023/05/07 09:06:14;;;;;;;10.68;7.25;;;19.50;99.90;;;;;;5044133;28;20932;-71
2023/05/07 09:08:40;;;;;;;8.70;7.80;;;19.60;99.90;;;;;;5035668;28;20209;-71
2023/05/07 09:11:07;;;;;;;11.53;7.70;;;19.60;99.90;;;;;;5032808;28;20498;-71
2023/05/07 09:13:34;;;;;;;11.53;8.33;;;19.80;99.90;;;;;;5038408;28;20435;-71
2023/05/07 09:16:10;;;;;;;8.80;7.90;;;19.80;99.90;;;;;;5048293;28;20860;-71
2023/05/07 09:18:41;;;;;;;9.57;8.40;;;19.90;99.90;;;;;;5050191;28;20452;-70
2023/05/07 09:21:10;;;;;;;8.73;7.83;;;20.20;99.90;;;;;;5049887;28;20468;-70
2023/05/07 09:23:39;;;;;;;9.73;8.30;;;20.40;99.90;;;;;;5049201;28;20435;-70
2023/05/07 09:26:11;;;;;;;10.77;8.40;;;20.60;99.90;;;;;;5049791;28;20484;-71
2023/05/07 09:28:39;;;;;;;7.60;6.37;;;20.80;99.90;;;;;;5049948;28;20453;-71
2023/05/07 09:31:06;;;;;;;8.60;7.33;;;20.90;99.90;;;;;;5049024;28;20948;-71
2023/05/07 09:33:32;;;;;;;7.87;7.07;;;21.10;99.90;;;;;;5049699;28;20520;-67
2023/05/07 09:35:59;;;;;;;9.10;8.30;;;21.40;99.90;;;;;;5049663;28;20440;-68
2023/05/07 09:38:28;;;;;;;9.80;6.90;;;21.60;99.90;;;;;;5049526;28;20456;-67
2023/05/07 09:41:04;;;;;;;9.63;7.30;;;21.70;99.90;;;;;;5049769;28;20468;-69
2023/05/07 09:43:34;;;;;;;7.90;7.20;;;21.80;99.90;;;;;;5049754;28;20555;-70
2023/05/07 09:46:07;;;;;;;8.23;6.37;;;22.20;99.90;;;;;;5048782;28;20996;-70
2023/05/07 09:48:38;;;;;;;8.33;7.40;;;22.50;99.90;;;;;;5049112;28;20498;-70
2023/05/07 09:51:12;;;;;;;8.60;6.73;;;22.60;99.90;;;;;;5049165;28;20476;-71
2023/05/07 09:53:40;;;;;;;7.97;7.17;;;22.60;99.90;;;;;;5049408;28;20452;-70
2023/05/07 09:56:08;;;;;;;7.70;7.00;;;22.60;99.90;;;;;;5048987;28;20448;-70
2023/05/07 09:58:38;;;;;;;8.67;7.57;;;22.60;99.90;;;;;;5049268;28;20452;-70
2023/05/07 10:01:06;;;;;;;11.30;7.40;;;22.60;99.90;;;;;;5047729;28;20499;-70
2023/05/07 10:03:36;;;;;;;8.33;7.53;;;22.40;99.90;;;;;;5048916;28;20535;-70
2023/05/07 10:06:04;;;;;;;10.63;9.33;;;22.20;99.90;;;;;;5048331;28;20496;-66
2023/05/07 10:08:31;;;;;;;14.53;10.80;;;22.10;99.90;;;;;;5049279;28;20726;-67
2023/05/07 10:10:58;;;;;;;11.50;8.40;;;22.40;99.90;;;;;;5049043;28;20476;-67
2023/05/07 10:13:26;;;;;;;13.80;10.20;;;22.50;99.90;;;;;;5048805;28;20514;-67
2023/05/07 10:15:53;;;;;;;14.37;9.10;;;22.80;99.90;;;;;;5049413;28;20502;-67
2023/05/07 10:18:23;;;;;;;11.23;9.53;;;23.20;99.90;;;;;;5048862;28;20883;-67
2023/05/07 10:20:52;;;;;;;14.40;9.27;;;23.40;99.90;;;;;;5048809;28;20472;-67
2023/05/07 10:23:25;;;;;;;9.90;8.83;;;23.60;99.90;;;;;;5048744;28;20445;-67
2023/05/07 10:25:52;;;;;;;11.67;8.20;;;23.70;99.90;;;;;;5048968;28;20533;-67
2023/05/07 10:28:22;;;;;;;8.93;8.03;;;23.60;99.90;;;;;;5047808;28;20459;-67
2023/05/07 10:31:02;;;;;;;9.93;8.50;;;23.80;99.90;;;;;;5048326;28;20506;-67
2023/05/07 10:33:30;;;;;;;13.10;10.43;;;23.60;99.90;;;;;;5048620;28;20457;-66
2023/05/07 10:35:59;;;;;;;14.20;12.20;;;23.70;99.90;;;;;;5048015;28;20444;-66
2023/05/07 10:38:26;;;;;;;12.00;9.47;;;23.90;99.90;;;;;;5048647;28;20920;-66
2023/05/07 10:40:53;;;;;;;12.60;9.13;;;24.00;99.90;;;;;;5048867;28;21052;-68
2023/05/07 10:43:20;;;;;;;11.67;8.50;;;24.20;99.90;;;;;;5048294;28;20460;-66
2023/05/07 10:46:10;;;;;;;10.00;8.60;;;24.20;99.90;;;;;;5048214;28;20485;-66
2023/05/07 10:49:16;;;;;;;9.10;8.20;;;24.30;99.90;;;;;;5048840;28;20809;-65
2023/05/07 10:51:45;;;;;;;9.63;8.43;;;24.60;99.90;;;;;;5048304;28;20476;-66
2023/05/07 10:54:27;;;;;;;11.33;7.47;;;24.80;99.90;;;;;;5047586;28;20525;-66
2023/05/07 10:56:53;;;;;;;8.63;7.17;;;24.90;99.90;;;;;;5048059;28;20456;-67
2023/05/07 10:59:47;;;;;;;7.67;6.87;;;24.90;99.90;;;;;;5047259;28;21053;-66
2023/05/07 11:02:15;;;;;;;7.97;6.90;;;24.80;99.90;;;;;;5047320;28;20506;-66
2023/05/07 11:04:42;;;;;;;7.10;6.40;;;24.80;99.90;;;;;;5047258;28;20986;-66
2023/05/07 11:07:29;;;;;;;7.73;6.90;;;25.10;99.90;;;;;;5047400;28;20452;-65
2023/05/07 11:10:01;;;;;;;7.70;6.90;;;25.40;99.90;;;;;;5047663;28;20476;-65
2023/05/07 11:12:53;;;;;;;14.63;7.33;;;25.90;99.90;;;;;;5047271;28;20956;-66
2023/05/07 11:15:44;;;;;;;8.63;6.70;;;26.20;99.90;;;;;;5047766;28;20441;-66
2023/05/07 11:18:13;;;;;;;7.00;6.30;;;26.30;99.90;;;;;;5047533;28;20530;-65
2023/05/07 11:20:48;;;;;;;8.67;6.80;;;26.10;99.90;;;;;;5047785;28;20994;-65
2023/05/07 11:24:07;;;;;;;8.17;6.33;;;26.00;99.90;;;;;;5047767;28;20781;-65
2023/05/07 11:26:44;;;;;;;8.43;7.00;;;26.00;99.90;;;;;;5047061;28;20492;-65
2023/05/07 11:29:17;;;;;;;9.57;7.30;;;25.90;99.90;;;;;;5047439;28;20535;-65
2023/05/07 11:31:44;;;;;;;9.47;7.10;;;25.80;99.90;;;;;;5047500;28;20998;-66
2023/05/07 11:34:13;;;;;;;7.77;7.07;;;25.80;99.90;;;;;;5047072;28;20456;-66
2023/05/07 11:36:44;;;;;;;7.30;6.60;;;25.90;99.90;;;;;;5047711;28;20457;-66
2023/05/07 11:39:31;;;;;;;8.10;6.80;;;25.70;99.90;;;;;;5046521;28;20568;-66
2023/05/07 11:41:58;;;;;;;13.53;6.73;;;25.40;99.90;;;;;;5046931;28;20468;-66
2023/05/07 11:44:25;;;;;;;8.50;6.50;;;25.20;99.90;;;;;;5046948;28;21036;-66
2023/05/07 11:46:51;;;;;;;8.53;7.73;;;25.10;99.90;;;;;;5046372;28;20987;-67
2023/05/07 11:49:19;;;;;;;7.07;6.40;;;24.90;99.90;;;;;;5047262;28;20794;-66
2023/05/07 11:51:46;;;;;;;9.70;7.60;;;24.70;99.90;;;;;;5047456;28;20472;-66
2023/05/07 11:54:17;;;;;;;7.80;6.90;;;24.90;99.90;;;;;;5047624;28;21185;-66
2023/05/07 11:56:44;;;;;;;8.17;7.20;;;25.30;99.90;;;;;;5047635;28;20470;-66
2023/05/07 11:59:11;;;;;;;7.37;6.40;;;25.40;99.90;;;;;;5047008;28;20490;-66
2023/05/07 12:01:38;;;;;;;7.17;6.47;;;25.80;99.90;;;;;;5046602;28;21268;-66
2023/05/07 12:04:05;;;;;;;6.80;6.00;;;26.00;99.90;;;;;;5046810;28;21262;-66
2023/05/07 12:06:37;;;;;;;10.83;6.30;;;26.00;99.90;;;;;;5047027;28;20484;-66
2023/05/07 12:09:04;;;;;;;7.93;6.37;;;25.70;99.90;;;;;;5046917;28;20479;-66
2023/05/07 12:11:31;;;;;;;7.27;6.33;;;25.60;99.90;;;;;;5046785;28;20472;-66
2023/05/07 12:13:58;;;;;;;6.73;6.03;;;25.50;99.90;;;;;;5046571;28;20452;-66
2023/05/07 12:16:25;;;;;;;7.20;6.50;;;25.30;99.90;;;;;;5046350;28;20456;-66
2023/05/07 12:18:52;;;;;;;6.70;6.00;;;25.50;99.90;;;;;;5047178;28;20452;-66
2023/05/07 12:21:19;;;;;;;7.97;7.17;;;25.40;99.90;;;;;;5046911;28;20587;-65
2023/05/07 12:23:47;;;;;;;10.57;6.37;;;25.40;99.90;;;;;;5046982;28;20936;-65
2023/05/07 12:26:14;;;;;;;5.87;5.37;;;25.40;99.90;;;;;;5046145;28;20530;-65
2023/05/07 12:28:41;;;;;;;11.57;6.40;;;25.70;99.90;;;;;;5047262;28;20457;-66
2023/05/07 12:31:08;;;;;;;6.80;5.53;;;25.90;99.90;;;;;;5045779;28;20468;-66
2023/05/07 12:33:35;;;;;;;7.80;5.57;;;26.00;99.90;;;;;;5046676;28;20487;-66
2023/05/07 12:36:06;;;;;;;6.53;5.93;;;26.10;99.90;;;;;;5046815;28;20539;-67
2023/05/07 12:38:36;;;;;;;6.53;5.93;;;25.80;99.90;;;;;;5046081;28;20964;-67
2023/05/07 12:41:05;;;;;;;5.50;4.80;;;25.60;99.90;;;;;;5047113;28;20464;-66
2023/05/07 12:43:31;;;;;;;9.63;5.63;;;25.60;99.90;;;;;;5046566;28;20448;-67
2023/05/07 12:46:00;;;;;;;7.70;6.20;;;25.70;99.90;;;;;;5045932;28;20511;-67